• Join FlightAware (Why Join?)
  • Login
  • US Flag 
04:44AM EDT


 

Airport Tracker/Info


-or-


 

Live Flight TrackerFlight Track Log ✈ RPA3143 ✈ 31-Jul-2013 ✈ KDCA - KMCO

Flight Track Log - Related Links

Times and Time Zones

All times are in EDT time to prevent confusion due to time zone crossing. See the RPA3143 flight status page for this flight to view local times or setup timezone preferences in your user account.

Time Position Orientation Groundspeed Altitude Reporting Facility
EDT Latitude Longitude Course Direction KTS MPH feet Rate Location/Type
08:09AM 38.6117 -77.3050 218° Southwest  Level FlightAware Approximate
08:10AM 38.5264 -77.3923 225° Southwest  Level FlightAware Approximate
08:11AM 38.4494 -77.4913 225° Southwest  Level FlightAware Approximate
08:12AM 38.3669 -77.5774 233° Southwest  Level FlightAware Approximate
08:12AM 38.8567 -77.3511 226° Southwest 346 398 14,100  Level Washington Center
08:13AM 38.2985 -77.6859 233° Southwest  Level FlightAware Approximate
08:13AM 38.7603 -77.3967 200° South 357 411 15,000  Level Washington Center
08:14AM 38.2284 -77.7917 233° Southwest  Level FlightAware Approximate
08:14AM 38.6700 -77.4397 200° South 357 411 17,200  Level Washington Center
08:15AM 38.1634 -77.9034 233° Southwest  Level FlightAware Approximate
08:15AM 38.5794 -77.4825 200° South 357 411 19,100  Level Washington Center
08:16AM 38.0953 -78.0118 226° Southwest  Level FlightAware Approximate
08:16AM 38.4850 -77.5278 201° Southwest 357 411 21,200  Level Washington Center
08:17AM 38.0200 -78.1123 226° Southwest  Level FlightAware Approximate
08:17AM 38.3944 -77.5786 204° Southwest 357 411 22,900  Level Washington Center
08:18AM 38.3242 -77.6772 228° Southwest 363 418 24,500 1,440 Climbing Washington Center
08:19AM 38.2575 -77.7811 231° Southwest 375 432 25,900 1,260 Climbing Washington Center
08:20AM 38.1889 -77.8900 231° Southwest 392 451 27,100 1,140 Climbing Washington Center
08:21AM 38.1117 -77.9958 227° Southwest 403 464 28,200 1,080 Climbing Washington Center
08:22AM 38.0222 -78.0853 218° Southwest 408 470 29,400 1,080 Climbing Washington Center
08:23AM 37.9308 -78.1719 217° Southwest 414 476 30,400 1,020 Climbing Washington Center
08:24AM 37.8517 -78.2558 220° Southwest 414 476 31,500 1,080 Climbing Washington Center
08:25AM 37.7622 -78.3419 217° Southwest 414 476 32,600 960 Climbing Washington Center
08:26AM 37.6725 -78.4306 218° Southwest 414 476 33,500 900 Climbing Washington Center
08:27AM 37.5808 -78.5164 217° Southwest 414 476 34,500 900 Climbing Washington Center
08:28AM 37.4825 -78.6119 218° Southwest 414 476 35,300 720 Climbing Washington Center
08:29AM 37.3947 -78.6975 218° Southwest 414 476 36,000 300 Climbing Washington Center
08:30AM 37.3133 -78.7778 218° Southwest 395 455 36,000  Level Washington Center
08:31AM 37.2256 -78.8575 216° Southwest 395 455 36,000  Level Washington Center
08:32AM 37.1422 -78.9372 217° Southwest 390 449 36,000  Level Washington Center
08:33AM 37.0669 -79.0122 218° Southwest 390 449 36,000  Level Washington Center
08:34AM 36.9811 -79.0942 217° Southwest 390 449 36,000  Level Washington Center
08:35AM 36.8953 -79.1758 217° Southwest 390 449 36,000  Level Washington Center
08:36AM 36.8114 -79.2550 217° Southwest 390 449 36,000  Level Washington Center
08:38AM 36.6486 -79.4072 217° Southwest 392 451 36,000  Level Atlanta Center
08:39AM 36.5642 -79.4872 217° Southwest 392 451 36,000  Level Atlanta Center
08:40AM 36.4794 -79.5694 218° Southwest 392 451 36,000  Level Atlanta Center
08:41AM 36.3947 -79.6464 216° Southwest 392 451 36,000  Level Atlanta Center
08:42AM 36.3161 -79.7203 217° Southwest 392 451 36,000  Level Atlanta Center
08:43AM 36.2311 -79.7994 217° Southwest 392 451 36,000  Level Atlanta Center
08:44AM 36.1422 -79.8811 217° Southwest 397 457 36,000  Level Atlanta Center
08:45AM 36.0450 -79.9708 217° Southwest 397 457 36,000  Level Atlanta Center
08:46AM 35.9467 -80.0219 203° Southwest 397 457 36,000  Level Atlanta Center
08:47AM 35.8439 -80.0733 202° Southwest 397 457 36,000  Level Atlanta Center
08:48AM 35.7417 -80.1294 204° Southwest 397 457 36,000  Level Atlanta Center
08:49AM 35.6389 -80.1828 203° Southwest 403 464 36,000  Level Atlanta Center
08:50AM 35.5361 -80.2336 202° Southwest 415 478 36,000  Level Atlanta Center
08:51AM 35.4314 -80.2869 203° Southwest 409 471 36,000  Level Atlanta Center
08:52AM 35.3267 -80.3375 201° Southwest 408 470 36,000  Level Atlanta Center
08:53AM 35.2236 -80.3878 202° Southwest 408 470 36,000  Level Atlanta Center
08:55AM 34.9739 -80.5139 202° Southwest 426 490 36,000  Level Jacksonville Center
08:56AM 34.8683 -80.5647 202° Southwest 413 475 36,000  Level Jacksonville Center
08:57AM 34.7692 -80.6156 203° Southwest 406 467 36,000  Level Jacksonville Center
08:58AM 34.6658 -80.6686 203° Southwest 400 460 36,000  Level Jacksonville Center
08:59AM 34.5667 -80.7167 202° Southwest 414 476 36,000  Level Jacksonville Center
09:00AM 34.4653 -80.7644 201° Southwest 416 479 36,000  Level Jacksonville Center
09:01AM 34.3617 -80.8122 201° Southwest 405 466 36,000  Level Jacksonville Center
09:02AM 34.2475 -80.8478 194° South 401 461 36,000  Level Jacksonville Center
09:03AM 34.1331 -80.8606 185° South 401 461 36,000  Level Jacksonville Center
09:04AM 34.0164 -80.8733 185° South 419 482 36,000  Level Jacksonville Center
09:05AM 33.9081 -80.8833 184° South 428 493 36,000  Level Jacksonville Center
09:06AM 33.7936 -80.9008 187° South 428 493 36,000  Level Jacksonville Center
09:07AM 33.6747 -80.9108 184° South 423 487 36,000  Level Jacksonville Center
09:08AM 33.5603 -80.9261 186° South 423 487 36,000  Level Jacksonville Center
09:09AM 33.4414 -80.9386 185° South 423 487 36,000  Level Jacksonville Center
09:10AM 33.3269 -80.9511 185° South 423 487 36,000  Level Jacksonville Center
09:11AM 33.2103 -80.9661 186° South 423 487 36,000  Level Jacksonville Center
09:12AM 33.0956 -80.9783 185° South 423 487 36,000  Level Jacksonville Center
09:13AM 32.9769 -80.9933 186° South 423 487 36,000  Level Jacksonville Center
09:14AM 32.8622 -81.0056 185° South 423 487 36,000  Level Jacksonville Center
09:15AM 32.7433 -81.0181 185° South 423 487 36,000  Level Jacksonville Center
09:16AM 32.6267 -81.0328 186° South 423 487 36,000  Level Jacksonville Center
09:17AM 32.5122 -81.0425 184° South 423 487 36,000  Level Jacksonville Center
09:18AM 32.3850 -81.0597 187° South 418 481 36,000  Level Jacksonville Center
09:19AM 32.2767 -81.0694 184° South 425 489 36,000  Level Jacksonville Center
09:20AM 32.1597 -81.0814 185° South 425 489 36,000  Level Jacksonville Center
09:21AM 32.0431 -81.0986 187° South 425 489 36,000  Level Jacksonville Center
09:22AM 31.9264 -81.1106 185° South 425 489 36,000  Level Jacksonville Center
09:23AM 31.7931 -81.1231 185° South 430 495 36,000  Level Jacksonville Center
09:24AM 31.6825 -81.1372 186° South 445 512 36,000  Level Jacksonville Center
09:25AM 31.5533 -81.1494 185° South 461 531 36,000  Level Jacksonville Center
09:26AM 31.4114 -81.1667 186° South 461 531 36,000  Level Jacksonville Center
09:27AM 31.2842 -81.1764 184° South 461 531 36,000  Level Jacksonville Center
09:28AM 31.1547 -81.1689 177° South 461 531 36,000  Level Jacksonville Center
09:29AM 31.0272 -81.1664 179° South 461 531 36,000  Level Jacksonville Center
09:30AM 30.9019 -81.1639 179° South 456 525 36,000  Level Jacksonville Center
09:31AM 30.7725 -81.1567 177° South 456 525 36,000 -1,080 Level Jacksonville Center
09:32AM 30.6431 -81.1542 179° South 462 532 33,900 -1,800 Descending Jacksonville Center
09:33AM 30.5178 -81.1517 179° South 457 526 32,400 -1,980 Descending Jacksonville Center
09:34AM 30.3967 -81.1467 178° South 452 520 30,000 -2,340 Descending Jacksonville Center
09:35AM 30.2794 -81.1414 178° South 441 507 27,800 -2,220 Descending Jacksonville Center
09:36AM 30.1647 -81.1411 180° South 422 486 25,600 -1,980 Descending Jacksonville Center
09:37AM 30.0561 -81.1358 178° South 401 461 23,900 -840 Descending Jacksonville Center
09:38AM 29.9456 -81.1356 180° South 401 461 24,000  Climbing Jacksonville Center
09:39AM 29.8325 -81.1303 178° South 401 461 24,000 -300 Level Jacksonville Center
09:40AM 29.7117 -81.1303 180° South 417 480 23,500 -1,260 Descending Jacksonville Center
09:41AM 29.5906 -81.1275 179° South 428 493 21,500 -2,400 Descending Jacksonville Center
09:42AM 29.4775 -81.1225 178° South 422 486 18,800 -1,800 Descending Jacksonville Center
09:43AM 29.3628 -81.1197 179° South 417 480 18,000 -1,140 Descending Jacksonville Center
09:44AM 29.2522 -81.1169 179° South 410 472 16,600 -1,740 Descending Jacksonville Center
09:45AM 29.1497 -81.1047 174° South 395 455 14,600 -2,040 Descending Jacksonville Center
09:46AM 29.0472 -81.0969 176° South 384 442 12,600 -1,740 Descending Jacksonville Center
09:47AM 28.9533 -81.0917 177° South 367 422 11,200 -1,380 Descending Jacksonville Center
09:48AM 28.8656 -81.0789 173° South 344 396 9,900 -1,500 Descending Jacksonville Center
09:49AM 28.7881 -81.0733 176° South 306 352 8,300 -1,380 Descending Jacksonville Center
09:50AM 28.7331 -81.0222 141° Southeast 246 283 7,200 -900 Descending Jacksonville Center
09:51AM 28.6878 -81.0514 209° Southwest 183 211 6,600 -600 Descending Jacksonville Center
09:52AM 28.6803 -81.1225 263° West 172 198 6,000 -660 Descending Jacksonville Center
09:53AM 28.6750 -81.2006 266° West 202 232 5,300 -1,200 Descending Jacksonville Center
09:54AM 28.6614 -81.2694 257° West 217 250 3,700 -1,080 Descending Jacksonville Center
09:56AM 28.6000 -81.2833 191° South 207 238 3,000 -540 Descending Orlando TRACON
09:57AM 28.5333 -81.2833 180° South 200 230 2,600 -840 Descending Orlando TRACON
09:58AM 28.4833 -81.2833 180° South 170 196 1,300 -1,320 Descending Orlando TRACON